Northern Aroostook Regional Airport


Codes: KFVE/WFK
Name: Northern Aroostook Regional Airport
City: Frenchville
Country: United States
Elevation: 988 ft.
Wikipedia:

Photos at Northern Aroostook Regional Airport


   Photos courtesy of SpottingLog. You can add your own sightings and photos by signing up for a free trial today.



No photos found.

Weather at Northern Aroostook Regional Airport


Time (UTC)DescriptionTempratureWindCloud coverageVisibilityPressureHumidity
21-Feb-2024 03:00Clear Sky-18°C2 mph, W0%10000m1030hPa69%
21-Feb-2024 06:00Few Clouds-19°C0 mph, W11%10000m1032hPa79%
21-Feb-2024 09:00Scattered Clouds-20°C2 mph, SE42%10000m1035hPa89%
21-Feb-2024 12:00Broken Clouds-20°C2 mph, SE56%10000m1036hPa99%
21-Feb-2024 15:00Overcast Clouds-10°C9 mph, S87%10000m1033hPa75%
21-Feb-2024 18:00Broken Clouds-4°C9 mph, S80%10000m1029hPa70%
21-Feb-2024 21:00Broken Clouds-3°C9 mph, S63%10000m1027hPa79%
22-Feb-2024 00:00Scattered Clouds-9°C4 mph, SE38%10000m1027hPa93%
22-Feb-2024 03:00Scattered Clouds-9°C7 mph, SE27%10000m1026hPa93%
22-Feb-2024 06:00Broken Clouds-9°C7 mph, SE53%10000m1024hPa96%
22-Feb-2024 09:00Overcast Clouds-10°C4 mph, SE94%6536m1022hPa98%
22-Feb-2024 12:00Overcast Clouds-9°C4 mph, SE97%4101m1021hPa98%
22-Feb-2024 15:00Overcast Clouds-3°C9 mph, S100%10000m1018hPa85%
22-Feb-2024 18:00Overcast Clouds0°C11 mph, S87%10000m1014hPa84%
22-Feb-2024 21:00Few Clouds-0°C9 mph, SE21%10000m1011hPa82%
23-Feb-2024 00:00Few Clouds-7°C4 mph, SE19%10000m1010hPa96%
23-Feb-2024 03:00Scattered Clouds-8°C2 mph, SE26%10000m1007hPa97%
23-Feb-2024 06:00Broken Clouds-8°C2 mph, E53%10000m1005hPa97%
23-Feb-2024 09:00Overcast Clouds-9°C2 mph, E98%9775m1002hPa97%
23-Feb-2024 12:00Overcast Clouds-7°C4 mph, SE94%10000m999hPa96%
23-Feb-2024 15:00Light Snow-4°C7 mph, SE100%202m997hPa94%
23-Feb-2024 18:00Light Snow0°C9 mph, S100%732m995hPa98%
23-Feb-2024 21:00Light Snow-0°C7 mph, S100%60m994hPa99%
24-Feb-2024 00:00Snow-1°C4 mph, S100%126m995hPa99%
24-Feb-2024 03:00Light Snow-2°C7 mph, NW100%228m995hPa97%
24-Feb-2024 06:00Light Snow-7°C11 mph, NW100%2750m997hPa89%
24-Feb-2024 09:00Overcast Clouds-13°C13 mph, NW100%7473m1000hPa87%
24-Feb-2024 12:00Overcast Clouds-18°C13 mph, NW99%10000m1003hPa81%
24-Feb-2024 15:00Scattered Clouds-16°C16 mph, NW32%10000m1005hPa74%
24-Feb-2024 18:00Scattered Clouds-15°C16 mph, NW50%10000m1006hPa71%
24-Feb-2024 21:00Overcast Clouds-16°C13 mph, NW100%10000m1008hPa79%
25-Feb-2024 00:00Broken Clouds-19°C11 mph, NW67%10000m1012hPa78%
25-Feb-2024 03:00Clear Sky-18°C9 mph, NW5%10000m1014hPa78%
25-Feb-2024 06:00Clear Sky-20°C4 mph, W5%10000m1016hPa88%
25-Feb-2024 09:00Clear Sky-20°C2 mph, SW6%10000m1016hPa93%
25-Feb-2024 12:00Clear Sky-16°C7 mph, SW9%10000m1017hPa88%
25-Feb-2024 15:00Broken Clouds-8°C11 mph, SW53%10000m1016hPa74%
25-Feb-2024 18:00Broken Clouds-3°C13 mph, SW76%10000m1013hPa68%
25-Feb-2024 21:00Overcast Clouds-4°C11 mph, S90%10000m1013hPa75%
26-Feb-2024 00:00Overcast Clouds-6°C11 mph, S92%10000m1013hPa81%